createdAt,value
2022-10-06T00:01:17.648Z,20.08
2022-10-06T00:03:40.496Z,16.23
2022-10-06T00:06:03.891Z,18.23
2022-10-06T00:08:27.067Z,20.92
2022-10-06T00:10:49.925Z,16.75
2022-10-06T00:13:12.769Z,18.75
2022-10-06T00:15:35.602Z,20.37
2022-10-06T00:17:58.753Z,16.45
2022-10-06T00:20:21.331Z,17.58
2022-10-06T00:22:48.101Z,19.90
2022-10-06T00:25:13.156Z,18.67
2022-10-06T00:27:38.959Z,18.33
2022-10-06T00:30:02.220Z,18.05
2022-10-06T00:32:24.904Z,22.48
2022-10-06T00:34:47.615Z,18.88
2022-10-06T00:37:10.160Z,18.35
2022-10-06T00:39:33.024Z,18.47
2022-10-06T00:41:55.584Z,17.92
2022-10-06T00:44:18.861Z,17.40
2022-10-06T00:46:46.240Z,18.33
2022-10-06T00:49:22.113Z,16.38
2022-10-06T00:51:51.645Z,17.73
2022-10-06T00:54:15.135Z,16.67
2022-10-06T00:56:40.132Z,16.65
2022-10-06T00:59:02.662Z,16.40
2022-10-06T01:01:27.195Z,20.58
2022-10-06T01:03:57.643Z,15.70
2022-10-06T01:06:20.327Z,16.98
2022-10-06T01:08:42.989Z,17.48
2022-10-06T01:11:06.728Z,16.55
2022-10-06T01:13:30.701Z,17.10
2022-10-06T01:16:22.649Z,15.63
2022-10-06T01:18:47.831Z,18.02
2022-10-06T01:21:28.079Z,16.15
2022-10-06T01:23:51.089Z,17.02
2022-10-06T01:26:16.013Z,18.05
2022-10-06T01:28:39.536Z,18.60
2022-10-06T01:31:02.916Z,16.92
2022-10-06T01:33:27.457Z,22.92
2022-10-06T01:35:52.171Z,18.80
2022-10-06T01:38:14.981Z,17.30
2022-10-06T01:40:37.535Z,18.17
2022-10-06T01:43:00.136Z,15.52
2022-10-06T01:45:23.648Z,18.05
2022-10-06T01:47:46.307Z,18.90
2022-10-06T01:50:09.207Z,20.52
2022-10-06T01:52:31.917Z,18.70
2022-10-06T01:54:54.746Z,18.08
2022-10-06T01:57:17.787Z,16.85
2022-10-06T01:59:41.030Z,16.52
2022-10-06T02:02:04.640Z,17.95
2022-10-06T02:04:27.740Z,17.43
2022-10-06T02:06:51.622Z,16.30
2022-10-06T02:09:14.118Z,18.40
2022-10-06T02:11:38.711Z,18.88
2022-10-06T02:14:02.348Z,17.08
2022-10-06T02:16:26.676Z,19.07
2022-10-06T02:18:49.605Z,16.90
2022-10-06T02:21:20.044Z,19.08
2022-10-06T02:23:42.583Z,17.58
2022-10-06T02:26:07.282Z,17.13
2022-10-06T02:28:32.102Z,19.37
2022-10-06T02:31:06.294Z,20.08
2022-10-06T02:33:30.194Z,19.17
2022-10-06T02:35:56.766Z,18.35
2022-10-06T02:38:20.359Z,20.10
2022-10-06T02:40:44.113Z,18.13
2022-10-06T02:43:06.652Z,21.45
2022-10-06T02:45:31.113Z,20.80
2022-10-06T02:47:54.706Z,19.85
2022-10-06T02:50:17.674Z,21.60
2022-10-06T02:52:43.044Z,20.20
2022-10-06T02:55:07.756Z,19.13
2022-10-06T02:57:30.495Z,21.15
2022-10-06T02:59:54.158Z,19.83
2022-10-06T03:02:16.855Z,19.52
2022-10-06T03:04:39.952Z,18.60
2022-10-06T03:07:02.726Z,21.70
2022-10-06T03:09:30.768Z,19.85
2022-10-06T03:11:53.536Z,18.65
2022-10-06T03:14:23.143Z,21.20
2022-10-06T03:16:46.496Z,20.60
2022-10-06T03:19:14.833Z,25.08
2022-10-06T03:21:42.857Z,21.65
2022-10-06T03:24:06.750Z,21.50
2022-10-06T03:26:31.857Z,22.35
2022-10-06T03:28:55.973Z,22.47
2022-10-06T03:31:25.653Z,25.55
2022-10-06T03:33:48.334Z,23.42
2022-10-06T03:36:13.270Z,24.27
2022-10-06T03:38:36.991Z,22.73
2022-10-06T03:41:24.826Z,21.97
2022-10-06T03:43:49.385Z,23.15
2022-10-06T03:46:14.150Z,26.50
2022-10-06T03:48:36.803Z,23.38
2022-10-06T03:51:01.701Z,21.65
2022-10-06T03:53:28.016Z,21.93
2022-10-06T03:55:50.946Z,27.10
2022-10-06T03:58:17.344Z,21.02
2022-10-06T04:00:40.452Z,20.77
2022-10-06T04:03:03.132Z,23.88
2022-10-06T04:05:26.671Z,24.87
2022-10-06T04:07:49.349Z,25.25
2022-10-06T04:10:12.688Z,23.05
2022-10-06T04:12:36.183Z,25.20
2022-10-06T04:15:00.203Z,24.45
2022-10-06T04:17:23.978Z,23.23
2022-10-06T04:19:46.556Z,22.13
2022-10-06T04:22:09.328Z,24.58
2022-10-06T04:24:32.016Z,23.67
2022-10-06T04:27:14.584Z,22.65
2022-10-06T04:29:39.060Z,23.63
2022-10-06T04:32:02.448Z,23.63
2022-10-06T04:34:29.087Z,24.98
2022-10-06T04:36:52.107Z,23.02
2022-10-06T04:39:14.984Z,22.63
2022-10-06T04:41:42.246Z,23.87
2022-10-06T04:44:07.708Z,26.00
2022-10-06T04:46:42.731Z,26.10
2022-10-06T04:49:07.473Z,26.55
2022-10-06T04:51:31.439Z,23.63
2022-10-06T04:53:55.788Z,26.07
2022-10-06T04:56:21.606Z,23.20
2022-10-06T04:58:49.197Z,23.88
2022-10-06T05:01:16.714Z,20.95
2022-10-06T05:03:39.457Z,24.25
2022-10-06T05:06:08.091Z,21.40
2022-10-06T05:08:31.471Z,25.35
2022-10-06T05:11:06.439Z,22.80
2022-10-06T05:13:29.403Z,22.17
2022-10-06T05:15:59.544Z,25.20
2022-10-06T05:18:24.319Z,27.97
2022-10-06T05:20:55.682Z,24.33
2022-10-06T05:23:18.807Z,24.80
2022-10-06T05:25:51.655Z,27.50
2022-10-06T05:28:14.771Z,25.10
2022-10-06T05:30:37.561Z,24.83
2022-10-06T05:33:00.261Z,23.90
2022-10-06T05:35:23.388Z,25.55
2022-10-06T05:37:46.498Z,27.98
2022-10-06T05:40:11.662Z,24.75
2022-10-06T05:42:34.877Z,25.03
2022-10-06T05:44:57.515Z,24.52
2022-10-06T05:47:20.865Z,28.52
2022-10-06T05:49:43.839Z,28.85
2022-10-06T05:52:07.123Z,28.15
2022-10-06T05:54:32.298Z,26.70
2022-10-06T05:56:55.155Z,26.17
2022-10-06T05:59:18.487Z,27.92
2022-10-06T06:01:43.671Z,26.65
2022-10-06T06:04:14.330Z,27.50
2022-10-06T06:06:43.907Z,27.23
2022-10-06T06:09:15.270Z,28.83
2022-10-06T06:11:41.920Z,28.15
2022-10-06T06:14:16.650Z,29.50
2022-10-06T06:16:40.855Z,28.58
2022-10-06T06:19:03.987Z,30.07
2022-10-06T06:21:27.472Z,27.08
2022-10-06T06:23:50.204Z,32.70
2022-10-06T06:26:14.918Z,30.52
2022-10-06T06:28:41.548Z,28.35
2022-10-06T06:31:07.387Z,25.97
2022-10-06T06:33:40.849Z,31.15
2022-10-06T06:36:15.403Z,28.38
2022-10-06T06:38:38.524Z,30.42
2022-10-06T06:41:01.901Z,30.33
2022-10-06T06:43:24.640Z,29.63
2022-10-06T06:46:10.857Z,24.77
2022-10-06T06:48:55.527Z,28.08
2022-10-06T06:51:24.041Z,26.05
2022-10-06T06:53:46.750Z,23.52
2022-10-06T06:56:10.187Z,23.97
2022-10-06T06:58:33.602Z,27.63
2022-10-06T07:01:13.826Z,23.80
2022-10-06T07:03:56.582Z,24.50
2022-10-06T07:06:23.501Z,26.00
2022-10-06T07:08:49.706Z,23.20
2022-10-06T07:11:14.805Z,27.98
2022-10-06T07:13:39.749Z,24.50
2022-10-06T07:16:20.965Z,25.70
2022-10-06T07:19:02.677Z,24.27
2022-10-06T07:21:44.419Z,25.07
2022-10-06T07:24:27.975Z,23.10
2022-10-06T07:26:50.603Z,25.35
2022-10-06T07:29:13.284Z,23.50
2022-10-06T07:31:36.798Z,24.77
2022-10-06T07:34:01.179Z,25.30
2022-10-06T07:36:24.959Z,25.88
2022-10-06T07:38:49.003Z,22.83
2022-10-06T07:41:20.762Z,23.85
2022-10-06T07:43:53.713Z,26.73
2022-10-06T07:46:34.949Z,24.43
2022-10-06T07:49:17.319Z,23.33
2022-10-06T07:51:43.039Z,25.08
2022-10-06T07:54:07.001Z,25.75
2022-10-06T07:56:47.031Z,23.40
2022-10-06T07:59:09.601Z,23.13
2022-10-06T08:01:32.293Z,24.20
2022-10-06T08:04:00.152Z,23.17
2022-10-06T08:06:25.321Z,23.00
2022-10-06T08:09:29.965Z,23.25
2022-10-06T08:11:54.465Z,22.50
2022-10-06T08:14:17.132Z,22.70
2022-10-06T08:16:39.816Z,25.23
2022-10-06T08:19:02.565Z,23.98
2022-10-06T08:21:30.859Z,22.25
2022-10-06T08:23:54.395Z,24.00
2022-10-06T08:26:19.140Z,23.10
2022-10-06T08:28:45.854Z,26.63
2022-10-06T08:31:11.688Z,23.92
2022-10-06T08:33:35.998Z,25.05
2022-10-06T08:36:09.910Z,22.30
2022-10-06T08:38:32.539Z,22.95
2022-10-06T08:40:55.060Z,24.38
2022-10-06T08:43:20.526Z,22.38
2022-10-06T08:45:45.831Z,24.35
2022-10-06T08:48:16.950Z,22.07
2022-10-06T08:51:10.637Z,22.92
2022-10-06T08:54:11.176Z,21.83
2022-10-06T08:56:54.528Z,20.48
2022-10-06T08:59:17.650Z,21.40
2022-10-06T09:01:50.736Z,19.27
2022-10-06T09:04:28.413Z,21.13
2022-10-06T09:07:00.006Z,19.60
2022-10-06T09:09:45.906Z,19.52
2022-10-06T09:12:18.086Z,20.55
2022-10-06T09:14:49.206Z,22.13
2022-10-06T09:17:19.714Z,21.50
2022-10-06T09:19:55.248Z,20.75
2022-10-06T09:22:21.607Z,20.77
2022-10-06T09:24:50.484Z,21.80
2022-10-06T09:27:20.404Z,21.63
2022-10-06T09:29:43.113Z,20.65
2022-10-06T09:32:06.837Z,21.63
2022-10-06T09:34:51.475Z,18.85
2022-10-06T09:37:14.677Z,19.80
2022-10-06T09:39:39.777Z,19.07
2022-10-06T09:42:17.494Z,20.10
2022-10-06T09:44:52.367Z,24.92
2022-10-06T09:47:32.016Z,20.60
2022-10-06T09:50:27.688Z,21.88
2022-10-06T09:53:03.509Z,20.07
2022-10-06T09:55:38.187Z,19.75
2022-10-06T09:58:02.903Z,19.58
2022-10-06T10:00:36.215Z,20.92
2022-10-06T10:03:02.896Z,21.33
2022-10-06T10:05:30.913Z,15.57
2022-10-06T10:08:18.597Z,9.75
2022-10-06T10:10:41.505Z,8.77
2022-10-06T10:13:18.895Z,12.05
2022-10-06T10:15:54.811Z,9.68
2022-10-06T10:18:23.024Z,11.30
2022-10-06T10:20:59.267Z,9.40
2022-10-06T10:23:31.066Z,10.52
2022-10-06T10:26:27.067Z,12.15
2022-10-06T10:28:52.267Z,8.55
2022-10-06T10:31:24.103Z,9.97
2022-10-06T10:34:24.999Z,8.57
2022-10-06T10:36:53.378Z,10.07
2022-10-06T10:39:52.497Z,9.18
2022-10-06T10:42:39.747Z,12.23
2022-10-06T10:45:07.813Z,10.70
2022-10-06T10:47:36.844Z,10.68
2022-10-06T10:50:11.810Z,11.63
2022-10-06T10:52:42.530Z,15.98
2022-10-06T10:55:26.830Z,13.10
2022-10-06T10:57:51.182Z,17.87
2022-10-06T11:00:25.376Z,18.02
2022-10-06T11:02:48.630Z,12.90
2022-10-06T11:05:55.828Z,13.05
2022-10-06T11:08:43.040Z,13.75
2022-10-06T11:11:42.271Z,14.27
2022-10-06T11:14:13.543Z,13.85
2022-10-06T11:16:42.113Z,13.80
2022-10-06T11:19:16.853Z,10.98
2022-10-06T11:21:54.843Z,13.15
2022-10-06T11:24:32.974Z,11.93
2022-10-06T11:27:01.156Z,13.48
2022-10-06T11:29:43.311Z,13.35
2022-10-06T11:32:21.678Z,12.15
2022-10-06T11:34:48.967Z,11.93
2022-10-06T11:37:38.817Z,11.17
2022-10-06T11:40:23.332Z,12.43
2022-10-06T11:42:53.235Z,12.90
2022-10-06T11:45:17.379Z,10.57
2022-10-06T11:48:22.298Z,13.25
2022-10-06T11:50:51.234Z,16.77
2022-10-06T11:53:32.299Z,23.48
2022-10-06T11:56:15.539Z,11.50
2022-10-06T11:58:58.330Z,11.00
2022-10-06T12:01:53.435Z,9.68
2022-10-06T12:04:20.634Z,10.60
2022-10-06T12:06:46.026Z,15.13
2022-10-06T12:09:23.807Z,11.60
2022-10-06T12:11:46.460Z,12.10
2022-10-06T12:17:43.171Z,10.83
2022-10-06T12:20:22.387Z,10.10
2022-10-06T12:22:51.094Z,9.68
2022-10-06T12:25:17.065Z,8.25
2022-10-06T12:28:06.211Z,10.35
2022-10-06T12:30:45.868Z,14.67
2022-10-06T12:33:16.860Z,10.55
2022-10-06T12:35:42.816Z,11.02
2022-10-06T12:38:26.660Z,10.00
2022-10-06T12:40:51.912Z,9.23
2022-10-06T12:43:23.023Z,7.70
2022-10-06T12:45:54.630Z,7.30
2022-10-06T12:48:47.730Z,10.65
2022-10-06T12:51:13.105Z,10.10
2022-10-06T12:54:06.197Z,9.43
2022-10-06T12:56:31.515Z,8.53
2022-10-06T12:58:55.862Z,8.82
2022-10-06T13:01:19.153Z,7.63
2022-10-06T13:03:48.699Z,7.55
2022-10-06T13:06:11.887Z,7.53
2022-10-06T13:08:36.581Z,9.30
2022-10-06T13:11:17.828Z,9.23
2022-10-06T13:14:12.833Z,7.72
2022-10-06T13:16:40.983Z,7.35
2022-10-06T13:19:03.773Z,7.00
2022-10-06T13:21:29.969Z,8.63
2022-10-06T13:23:52.739Z,7.90
2022-10-06T13:26:15.265Z,9.05
2022-10-06T13:28:43.846Z,7.38
2022-10-06T13:31:21.877Z,8.20
2022-10-06T13:33:45.887Z,7.90
2022-10-06T13:36:10.881Z,6.95
2022-10-06T13:38:35.932Z,8.32
2022-10-06T13:41:13.811Z,10.57
2022-10-06T13:43:43.202Z,9.32
2022-10-06T13:46:13.958Z,9.53
2022-10-06T13:48:37.783Z,8.32
2022-10-06T13:51:03.424Z,7.70
2022-10-06T13:53:30.503Z,8.77
2022-10-06T13:55:54.088Z,9.35
2022-10-06T13:58:18.368Z,8.83
2022-10-06T14:00:56.027Z,18.98
2022-10-06T14:06:15.954Z,10.30
2022-10-06T14:08:38.773Z,11.23
2022-10-06T14:11:05.071Z,11.10
2022-10-06T14:13:32.328Z,8.85
2022-10-06T14:15:59.021Z,9.85
2022-10-06T14:18:28.066Z,9.60
2022-10-06T14:20:57.272Z,8.20
2022-10-06T14:23:48.248Z,11.13
2022-10-06T14:26:12.995Z,11.93
2022-10-06T14:28:35.557Z,10.25
2022-10-06T14:30:59.033Z,9.18
2022-10-06T14:33:21.431Z,7.85
2022-10-06T14:35:44.118Z,8.60
2022-10-06T14:38:06.620Z,8.73
2022-10-06T14:40:29.247Z,8.68
2022-10-06T14:42:51.796Z,18.95
2022-10-06T14:45:14.444Z,12.45
2022-10-06T14:47:37.361Z,12.27
2022-10-06T14:50:00.408Z,10.20
2022-10-06T14:52:23.091Z,11.38
2022-10-06T14:54:46.435Z,8.85
2022-10-06T14:57:09.778Z,8.95
2022-10-06T14:59:32.738Z,8.03
2022-10-06T15:01:55.461Z,10.68
2022-10-06T15:04:20.432Z,7.75
2022-10-06T15:07:01.636Z,9.13
2022-10-06T15:09:24.248Z,8.77
2022-10-06T15:11:46.881Z,9.70
2022-10-06T15:14:09.972Z,8.80
2022-10-06T15:16:33.784Z,9.73
2022-10-06T15:18:58.770Z,7.60
2022-10-06T15:21:23.852Z,6.93
2022-10-06T15:23:48.113Z,8.77
2022-10-06T15:26:29.831Z,11.80
2022-10-06T15:29:01.820Z,7.82
2022-10-06T15:31:25.435Z,13.25
2022-10-06T15:33:52.312Z,9.43
2022-10-06T15:36:18.763Z,7.93
2022-10-06T15:38:41.332Z,8.85
2022-10-06T15:41:04.647Z,8.43
2022-10-06T15:43:47.093Z,8.43
2022-10-06T15:46:11.682Z,8.90
2022-10-06T15:48:34.339Z,8.63
2022-10-06T15:50:57.178Z,9.80
2022-10-06T15:53:22.503Z,8.63
2022-10-06T15:55:45.001Z,8.20
2022-10-06T15:58:07.499Z,9.77
2022-10-06T16:00:30.265Z,9.27
2022-10-06T16:02:52.769Z,9.60
2022-10-06T16:05:44.815Z,10.38
2022-10-06T16:08:07.424Z,10.23
2022-10-06T16:10:29.988Z,12.68
2022-10-06T16:12:52.511Z,10.93
2022-10-06T16:15:15.272Z,13.27
2022-10-06T16:17:37.743Z,14.18
2022-10-06T16:20:00.748Z,10.52
2022-10-06T16:22:23.359Z,10.48
2022-10-06T16:24:45.860Z,10.53
2022-10-06T16:27:12.919Z,11.57
2022-10-06T16:29:35.445Z,10.48
2022-10-06T16:31:59.308Z,11.07
2022-10-06T16:34:22.430Z,14.13
2022-10-06T16:36:45.914Z,13.43
2022-10-06T16:39:16.650Z,14.60
2022-10-06T16:41:39.453Z,13.60
2022-10-06T16:44:02.131Z,13.13
2022-10-06T16:46:26.608Z,13.65
2022-10-06T16:48:51.321Z,14.20
2022-10-06T16:51:22.664Z,11.65
2022-10-06T16:53:46.660Z,15.02
2022-10-06T16:56:15.847Z,12.55
2022-10-06T16:58:43.232Z,12.95
2022-10-06T17:01:06.318Z,15.67
2022-10-06T17:03:28.794Z,13.23
2022-10-06T17:05:51.266Z,16.73
2022-10-06T17:08:13.704Z,13.55
2022-10-06T17:10:36.894Z,16.58
2022-10-06T17:12:59.362Z,16.73
2022-10-06T17:15:22.139Z,17.23
2022-10-06T17:17:44.740Z,19.98
2022-10-06T17:20:08.556Z,15.45
2022-10-06T17:22:31.056Z,16.13
2022-10-06T17:24:53.477Z,15.87
2022-10-06T17:27:16.098Z,15.45
2022-10-06T17:29:39.132Z,13.55
2022-10-06T17:32:02.738Z,14.10
2022-10-06T17:34:29.130Z,17.33
2022-10-06T17:36:54.888Z,15.13
2022-10-06T17:39:21.946Z,17.55
2022-10-06T17:41:46.318Z,16.15
2022-10-06T17:44:13.363Z,15.38
2022-10-06T17:46:40.677Z,14.60
2022-10-06T17:49:07.624Z,12.27
2022-10-06T17:51:30.243Z,14.23
2022-10-06T17:53:58.066Z,14.68
2022-10-06T17:56:23.380Z,16.52
2022-10-06T17:58:56.744Z,14.57
2022-10-06T18:01:19.387Z,18.00
2022-10-06T18:03:42.886Z,19.75
2022-10-06T18:06:31.874Z,18.75
2022-10-06T18:08:56.154Z,15.85
2022-10-06T18:11:38.669Z,14.82
2022-10-06T18:14:22.276Z,19.07
2022-10-06T18:16:59.138Z,20.05
2022-10-06T18:19:34.048Z,16.77
2022-10-06T18:21:59.730Z,20.48
2022-10-06T18:24:25.539Z,20.17
2022-10-06T18:26:49.943Z,21.27
2022-10-06T18:29:12.550Z,20.42
2022-10-06T18:31:35.850Z,19.00
2022-10-06T18:36:42.995Z,18.80
2022-10-06T18:39:07.267Z,21.70
2022-10-06T18:41:59.147Z,19.77
2022-10-06T18:44:40.480Z,20.27
2022-10-06T18:47:22.345Z,19.25
2022-10-06T18:50:06.762Z,21.95
2022-10-06T18:52:29.362Z,22.37
2022-10-06T18:54:51.905Z,20.27
2022-10-06T18:57:14.557Z,18.77
2022-10-06T18:59:37.802Z,23.75
2022-10-06T19:02:00.675Z,25.88
2022-10-06T19:04:24.161Z,22.07
2022-10-06T19:06:50.029Z,24.70
2022-10-06T19:09:17.518Z,23.25
2022-10-06T19:11:48.643Z,24.52
2022-10-06T19:14:13.204Z,22.77
2022-10-06T19:16:36.090Z,20.77
2022-10-06T19:18:59.124Z,23.63
2022-10-06T19:21:21.707Z,22.67
2022-10-06T19:23:44.645Z,19.33
2022-10-06T19:26:11.104Z,22.38
2022-10-06T19:28:34.458Z,23.40
2022-10-06T19:31:02.796Z,21.73
2022-10-06T19:33:26.869Z,24.02
2022-10-06T19:35:54.359Z,19.40
2022-10-06T19:38:17.151Z,22.13
2022-10-06T19:40:39.679Z,21.97
2022-10-06T19:43:02.309Z,23.20
2022-10-06T19:45:24.917Z,22.30
2022-10-06T19:47:47.961Z,19.90
2022-10-06T19:50:12.822Z,24.33
2022-10-06T19:52:37.035Z,22.30
2022-10-06T19:55:00.783Z,22.10
2022-10-06T19:57:23.364Z,22.50
2022-10-06T19:59:45.901Z,20.52
2022-10-06T20:02:10.118Z,21.92
2022-10-06T20:05:08.284Z,20.33
2022-10-06T20:07:30.917Z,22.30
2022-10-06T20:09:54.018Z,22.30
2022-10-06T20:12:18.741Z,24.92
2022-10-06T20:14:44.665Z,25.25
2022-10-06T20:17:07.220Z,24.63
2022-10-06T20:19:30.998Z,23.45
2022-10-06T20:21:53.917Z,24.77
2022-10-06T20:24:22.877Z,26.65
2022-10-06T20:26:50.494Z,25.25
2022-10-06T20:29:15.265Z,22.60
2022-10-06T20:31:43.726Z,26.73
2022-10-06T20:34:08.542Z,25.63
2022-10-06T20:36:32.411Z,27.60
2022-10-06T20:39:14.260Z,31.50
2022-10-06T20:41:46.097Z,26.70
2022-10-06T20:44:09.123Z,27.60
2022-10-06T20:46:34.143Z,30.17
2022-10-06T20:49:04.234Z,27.50
2022-10-06T20:51:27.862Z,28.55
2022-10-06T20:53:50.663Z,30.20
2022-10-06T20:56:13.891Z,31.15
2022-10-06T20:58:36.736Z,31.10
2022-10-06T21:01:11.132Z,30.58
2022-10-06T21:03:35.161Z,32.40
2022-10-06T21:05:57.842Z,30.23
2022-10-06T21:08:20.354Z,31.77
2022-10-06T21:10:44.015Z,29.77
2022-10-06T21:13:06.875Z,32.53
2022-10-06T21:15:29.980Z,31.50
2022-10-06T21:17:58.952Z,29.90
2022-10-06T21:20:21.791Z,34.33
2022-10-06T21:22:44.465Z,35.10
2022-10-06T21:25:07.786Z,33.47
2022-10-06T21:27:30.614Z,32.20
2022-10-06T21:29:53.419Z,31.63
2022-10-06T21:32:15.981Z,31.88
2022-10-06T21:34:39.320Z,34.53
2022-10-06T21:37:02.386Z,31.95
2022-10-06T21:39:24.856Z,35.60
2022-10-06T21:41:47.282Z,31.57
2022-10-06T21:44:19.066Z,31.88
2022-10-06T21:46:45.923Z,30.23
2022-10-06T21:49:13.521Z,32.55
2022-10-06T21:51:36.165Z,31.65
2022-10-06T21:54:00.352Z,28.10
2022-10-06T21:56:23.711Z,26.90
2022-10-06T21:58:53.355Z,31.80
2022-10-06T22:01:16.034Z,28.08
2022-10-06T22:03:39.222Z,26.45
2022-10-06T22:06:06.232Z,30.77
2022-10-06T22:08:31.815Z,29.48
2022-10-06T22:10:54.314Z,30.20
2022-10-06T22:13:16.822Z,28.42
2022-10-06T22:15:39.371Z,28.67
2022-10-06T22:18:02.273Z,27.57
2022-10-06T22:20:24.774Z,30.05
2022-10-06T22:22:47.182Z,29.05
2022-10-06T22:25:09.874Z,29.20
2022-10-06T22:27:32.857Z,28.80
2022-10-06T22:29:55.602Z,27.80
2022-10-06T22:32:19.513Z,30.38
2022-10-06T22:34:42.076Z,28.60
2022-10-06T22:37:04.533Z,27.60
2022-10-06T22:39:26.982Z,27.88
2022-10-06T22:41:49.515Z,28.60
2022-10-06T22:44:12.042Z,28.90
2022-10-06T22:46:36.252Z,29.98
2022-10-06T22:48:58.989Z,26.60
2022-10-06T22:51:22.312Z,25.52
2022-10-06T22:53:45.129Z,27.00
2022-10-06T22:56:07.980Z,25.00
2022-10-06T22:58:30.965Z,26.08
2022-10-06T23:00:53.714Z,25.20
2022-10-06T23:03:19.909Z,28.48
2022-10-06T23:05:42.402Z,23.73
2022-10-06T23:08:06.263Z,24.80
2022-10-06T23:10:30.375Z,25.92
2022-10-06T23:12:54.790Z,25.23
2022-10-06T23:15:17.250Z,25.63
2022-10-06T23:17:40.739Z,21.07
2022-10-06T23:20:04.407Z,21.02
2022-10-06T23:22:27.493Z,23.02
2022-10-06T23:24:50.048Z,22.25
2022-10-06T23:27:14.281Z,22.52
2022-10-06T23:29:37.250Z,26.57
2022-10-06T23:31:59.890Z,23.27
2022-10-06T23:34:22.416Z,23.02
2022-10-06T23:36:44.983Z,22.73
2022-10-06T23:39:07.517Z,21.88
2022-10-06T23:41:29.982Z,24.23
2022-10-06T23:43:52.486Z,22.15
2022-10-06T23:46:15.238Z,24.08
2022-10-06T23:48:37.877Z,24.52
2022-10-06T23:51:02.869Z,23.42
2022-10-06T23:53:26.135Z,23.00
2022-10-06T23:55:48.698Z,22.45
2022-10-06T23:58:11.549Z,25.60
